x

Nantucket 54nm Southeast Of Nantucket (44008) Wave Buoy

10:50am - Tue 27th Sep 2016 All times are EDT. -4 hours from GMT.

  • Sig Wave height 7.2ft
  • Swell Direction
  • Peak Period 7s
  • Average Period 5s
  • Wind
    29mph, 36mph gusts
  • Sea Temp 71°f
  • Air Temp 69°f
  • Sea Pressure 1014.9mb
  • Nantucket 54nm Southeast Of Nantucket
  • Nantucket 54nm Southeast Of Nantucket

More Historic Weather Station data

Upgrade to MSW Pro to gain access to the past 30 days of data for over 8000 Wavebouys and Weather Stations around the globe.

Join Pro

Comparision Forecast

View Surf forecast
   
Tue 09/27 10:50am 7ft 7s 5s 29 36 mph 1014.9mb 71f 69f
9:50am 7ft 7s 5s 27 34 mph 1014.9mb 72f 72f
8:50am 6ft 6s 5s 25 31 mph 1014.7mb 71f 71f
7:50am 5.5ft 5s 5s 27 31 mph 1015.1mb 71f 71f
6:50am 4.5ft 5s 4s 20 27 mph 1015.3mb 71f 70f
5:50am 4.5ft 5s 4s 25 29 mph 1015.5mb 71f 70f
4:50am 4ft 5s 4s 22 27 mph 1015.8mb 72f 69f
3:50am 3.5ft 4s 4s 22 27 mph 1016.3mb 72f 69f
2:50am 3ft 4s 4s 20 25 mph 1017mb 71f 69f
1:50am 2.5ft 12s 4s 18 22 mph 1017.9mb 72f 68f
12:50am 2.5ft 12s 5s 16 18 mph 1018.8mb 72f 67f
Mon 09/26 11:50pm 2ft 13s 5s 16 18 mph 1019.4mb 72f 65f
10:50pm 2ft 12s 6s 9 11 mph 1020mb 72f 64f
9:50pm 2.5ft 6s 6s 9 13 mph 1020.5mb 72f 64f
8:50pm 2ft 6s 6s 9 11 mph 1020.7mb 72f 63f
7:50pm 2.5ft 6s 6s 9 13 mph 1020.9mb 72f 62f
6:50pm 2.5ft 6s 5s 7 9 mph 1021mb 71f 61f
5:50pm 2.5ft 6s 5s 2 4 mph 1021.2mb 71f 63f
4:50pm 3ft 6s 5s 4 7 mph 1021.2mb 71f 62f
3:50pm 3ft 6s  -  7 9 mph 1021.6mb 72f 61f
2:50pm 3.5ft 6s 5s 7 9 mph 1021.7mb 73f 60f
1:50pm 3.5ft 6s 5s 9 11 mph 1021.6mb 73f 60f
12:50pm 3.5ft 6s 5s 9 11 mph 1022.2mb 73f 60f
11:50am 3.5ft 6s 5s 7 9 mph 1022.3mb 73f 60f
10:50am 3.5ft 7s 5s 7 13 mph 1022.5mb 72f 60f
9:50am 3ft 7s 5s 9 13 mph 1022.7mb 72f 60f
8:50am 3.5ft 7s 6s 7 13 mph 1022.7mb 72f 61f
7:50am 3.5ft 8s 6s 9 13 mph 1022.2mb 72f 61f
6:50am 3ft 8s 6s 11 13 mph 1021.6mb 73f 61f
5:50am 3.5ft 6s 5s 9 11 mph 1021mb 72f 61f
4:50am 3.5ft 7s 5s 11 16 mph 1020.7mb 72f 61f
3:50am 3.5ft 7s 6s 11 16 mph 1020.7mb 73f 61f
2:50am 3.5ft 7s 5s 11 16 mph 1020.8mb 71f 60f
1:50am 4ft 6s 5s 7 11 mph 1021.2mb 70f 60f
12:50am 4.5ft 6s 5s 9 11 mph 1021.1mb 70f 60f
Sun 09/25 11:50pm 4ft 6s 5s 11 16 mph 1021.2mb 70f 60f
10:50pm 4.5ft 6s 5s 11 18 mph 1021.2mb 71f 60f
9:50pm 4.5ft 7s 5s 13 18 mph 1021.1mb 71f 60f
8:50pm 4.5ft 7s 5s 16 20 mph 1020.7mb 72f 60f
7:50pm 4.5ft 8s 5s 16 20 mph 1020mb 72f 60f
6:50pm 4.5ft 8s 5s 16 20 mph 1019.2mb 71f 59f
5:50pm 4.5ft 8s 6s 13 18 mph 1018.7mb 71f 59f
4:50pm 4.5ft 7s 5s 16 22 mph 1018.3mb 70f 58f
3:50pm 5ft 7s 5s 18 20 mph 1018.2mb 70f 58f
2:50pm 5.5ft 8s 5s 18 22 mph 1018.1mb 70f 58f
1:50pm 6ft 7s 6s 16 22 mph 1018.3mb 71f 58f
12:50pm 6ft 7s 5s 20 25 mph 1018.5mb 71f 58f
11:50am 7ft 7s 6s 22 27 mph 1018.6mb 71f 58f
10:50am 6.5ft 7s 6s 20 25 mph 1018.7mb 71f 58f
9:50am 6ft 6s 5s 20 29 mph 1018.3mb 70f 59f
8:50am 6ft 6s 5s 20 29 mph 1018.2mb 69f 59f
7:50am 6ft 6s 5s 22 25 mph 1017.9mb 70f 60f
6:50am 6ft 6s 5s 20 25 mph 1017.4mb 70f 61f
5:50am 6ft 6s 5s 25 31 mph 1016.7mb 70f 61f
4:50am 5ft 6s 5s 25 31 mph 1016.3mb 70f 62f
3:50am 4.5ft 10s 5s 25 29 mph 1016.3mb 70f 62f
2:50am 4.5ft 10s 6s 22 27 mph 1016.5mb 70f 63f
1:50am 4.5ft 11s 6s 16 20 mph 1016.9mb 70f 62f
12:50am 4.5ft 10s 5s 13 18 mph 1017.4mb 70f 61f
Sat 09/24 11:50pm 5ft 6s 6s 11 16 mph 1017.9mb 70f 61f
10:50pm 5ft 6s 5s 13 16 mph 1017.9mb 70f 62f
9:50pm 5ft 10s 5s 13 18 mph 1018mb 70f 62f
8:50pm 5ft 11s 5s 13 18 mph 1018mb 70f 62f
7:50pm 5.5ft 10s 5s 18 20 mph 1017.7mb 69f 62f
6:50pm 5ft 10s 5s 20 25 mph 1017.4mb 69f 62f
5:50pm 5ft 5s 5s 20 27 mph 1016.8mb 69f 62f
4:50pm 5ft 7s 5s 18 25 mph 1016.3mb 69f 62f
3:50pm 5.5ft 11s 5s 18 25 mph 1016.1mb 69f 63f
2:50pm 5.5ft 7s 5s 20 27 mph 1015.9mb 69f 62f
1:50pm 5ft 7s 5s 18 22 mph 1016.4mb 69f 62f
12:50pm 5.5ft 7s 5s 20 25 mph 1016.5mb 69f 63f
11:50am 5.5ft 6s 5s 16 20 mph 1016.5mb 70f 63f
10:50am 5.5ft 7s 5s 18 22 mph 1016.3mb 70f 62f
9:50am 6ft 6s 6s 18 20 mph 1016.2mb 70f 64f
8:50am 6ft 7s 6s 18 20 mph 1015.8mb 70f 63f
7:50am 5.5ft 7s 5s 18 22 mph 1016.1mb 70f 64f
6:50am 6ft 6s 5s 18 22 mph 1015.7mb 71f 64f
5:50am 5ft 6s 5s 20 25 mph 1015.2mb 70f 64f
4:50am 5ft 10s 5s 18 22 mph 1014.8mb 71f 65f
3:50am 4.5ft 10s 6s 20 25 mph 1014.8mb 71f 65f
2:50am 4.5ft 11s 5s 18 20 mph 1014.8mb 71f 65f
1:50am 4.5ft 8s 5s 20 25 mph 1014.8mb 73f 66f
12:50am 4ft 10s 6s 18 20 mph 1014.6mb 73f 67f
Fri 09/23 11:50pm 3.5ft 10s 7s 18 22 mph 1014.3mb 73f 68f
10:50pm 4ft 10s 7s 11 16 mph 1014.5mb 74f 68f
9:50pm 4.5ft 11s 8s 9 11 mph 1014.4mb 74f 70f
8:50pm 4ft 11s 7s 9 11 mph 1014.5mb 74f 71f
7:50pm 3.5ft 11s 7s 7 9 mph 1014mb 75f 72f
6:50pm 3.5ft 10s 7s 7
mph
1013.8mb 75f 72f
5:50pm 4ft 11s 7s 11 13 mph 1014mb 74f 73f
4:50pm 4ft 11s 7s 7 9 mph 1014mb 74f 74f